KEKS

Ennis - Big Sky Airport

Ennis, Montana, USA
KEKS 260003Z 2600/2624 32011KT P6SM VCSH SCT050 BKN080 TEMPO 2601/2603 01014G24KT -SHRA BKN040 FM260300 01011KT P6SM SCT050 BKN080 FM260600 17008KT P6SM SKC
Issued Valid From Valid To
Apr-26 @ 00:03 UTC
(4 hours ago)
Apr-26 @ 00:00 UTC
(4 hours ago)
Apr-27 @ 00:00 UTC
(in 20 hours)
Expired Click to View Apr-26 @ 00:00 to Apr-26 @ 03:00
KEKS 260003Z 2600/2624 32011KT P6SM VCSH SCT050 BKN080
Wind Visibility Clouds
320° at 11 knots Greater than 6 miles
  • Scattered at 5,000' AGL
  • Broken at 8,000' AGL
Expired Click to View Apr-26 @ 01:00 to Apr-26 @ 03:00
TEMPO 2601/2603 01014G24KT -SHRA BKN040
Wind Clouds Conditions
10° at 14 knots
 Gusting to 24 knots
  • Broken at 4,000' AGL
  • Light Rain
From Apr-26 @ 03:00 to Apr-26 @ 06:00
FM260300 01011KT P6SM SCT050 BKN080
Wind Visibility Clouds
10° at 11 knots Greater than 6 miles
  • Scattered at 5,000' AGL
  • Broken at 8,000' AGL
From Apr-26 @ 06:00 to Apr-27 @ 00:00
FM260600 17008KT P6SM SKC
Wind Visibility Clouds
170° at 8 knots Greater than 6 miles
  • Clear skies
KEKS 260003Z 2600/2624 32011KT P6SM VCSH SCT050 BKN080 TEMPO 2601/2603 01014G24KT -SHRA BKN040 FM260300 01011KT P6SM SCT050 BKN080 FM260600 17008KT P6SM SKC
Issued Apr-26 @ 00:03 UTC
(4 hours ago)
Valid From Apr-26 @ 00:00 UTC
(4 hours ago)
Valid To Apr-27 @ 00:00 UTC
(in 20 hours)
Apr-26 @ 00:00 - Apr-26 @ 03:00
Wind Visibility
320° at 11 knots Greater than 6 miles
Clouds
  • Scattered at 5,000' AGL
  • Broken at 8,000' AGL
Apr-26 @ 01:00 - Apr-26 @ 03:00
Wind
10° at 14 knots
 Gusting to 24 knots
Clouds
  • Broken at 4,000' AGL
Conditions
  • Light Rain
From Apr-26 @ 03:00 - Apr-26 @ 06:00
Wind Visibility
10° at 11 knots Greater than 6 miles
Clouds
  • Scattered at 5,000' AGL
  • Broken at 8,000' AGL
From Apr-26 @ 06:00 - Apr-27 @ 00:00
Wind Visibility
170° at 8 knots Greater than 6 miles
Clouds
  • Clear skies